createdAt,value
2019-01-21T00:01:20.702Z,89.60
2019-01-21T00:04:29.208Z,89.86
2019-01-21T00:06:57.249Z,89.70
2019-01-21T00:12:20.356Z,89.09
2019-01-21T00:14:48.751Z,89.12
2019-01-21T00:17:22.274Z,88.86
2019-01-21T00:19:46.957Z,88.47
2019-01-21T00:22:55.402Z,88.57
2019-01-21T00:26:03.490Z,88.62
2019-01-21T00:28:31.917Z,88.78
2019-01-21T00:31:00.080Z,88.78
2019-01-21T00:34:08.538Z,89.17
2019-01-21T00:36:36.276Z,89.22
2019-01-21T00:39:45.038Z,89.34
2019-01-21T00:42:13.571Z,89.76
2019-01-21T00:45:21.769Z,89.07
2019-01-21T00:47:49.805Z,88.68
2019-01-21T00:50:17.958Z,88.90
2019-01-21T00:55:54.157Z,89.33
2019-01-21T00:58:41.484Z,88.89
2019-01-21T01:01:49.945Z,89.93
2019-01-21T01:04:58.031Z,90.40
2019-01-21T01:07:26.481Z,90.12
2019-01-21T01:09:55.066Z,89.47
2019-01-21T01:13:03.272Z,89.27
2019-01-21T01:15:31.312Z,89.10
2019-01-21T01:18:39.140Z,89.52
2019-01-21T01:21:07.513Z,89.84
2019-01-21T01:23:35.663Z,90.00
2019-01-21T01:26:04.084Z,89.18
2019-01-21T01:28:31.926Z,88.97
2019-01-21T01:31:00.422Z,89.06
2019-01-21T01:33:28.811Z,89.22
2019-01-21T01:35:57.382Z,88.99
2019-01-21T01:39:05.867Z,89.26
2019-01-21T01:44:29.151Z,89.77
2019-01-21T01:46:57.657Z,89.86
2019-01-21T01:50:06.188Z,89.96
2019-01-21T01:56:12.050Z,89.93
2019-01-21T01:58:40.463Z,90.24
2019-01-21T02:01:08.954Z,91.05
2019-01-21T02:06:32.030Z,91.15
2019-01-21T02:08:59.781Z,91.19
2019-01-21T02:11:27.527Z,90.46
2019-01-21T02:13:57.587Z,90.26
2019-01-21T02:16:26.074Z,90.12
2019-01-21T02:18:54.320Z,89.81
2019-01-21T02:22:02.846Z,89.48
2019-01-21T02:25:12.898Z,89.47
2019-01-21T02:28:19.102Z,89.53
2019-01-21T02:31:25.580Z,88.40
2019-01-21T02:34:31.769Z,87.54
2019-01-21T02:37:38.296Z,88.06
2019-01-21T02:40:44.563Z,89.13
2019-01-21T02:43:40.561Z,89.38
2019-01-21T02:47:00.760Z,90.03
2019-01-21T02:49:55.065Z,90.17
2019-01-21T02:53:03.576Z,90.01
2019-01-21T02:56:16.897Z,89.81
2019-01-21T02:59:23.188Z,89.88
2019-01-21T03:02:29.703Z,89.89
2019-01-21T03:05:43.532Z,89.98
2019-01-21T03:08:50.026Z,89.69
2019-01-21T03:11:56.217Z,90.04
2019-01-21T03:15:08.347Z,89.08
2019-01-21T03:20:29.633Z,89.28
2019-01-21T03:23:23.718Z,89.10
2019-01-21T03:26:30.251Z,89.49
2019-01-21T03:29:36.822Z,90.16
2019-01-21T03:32:45.278Z,89.84
2019-01-21T03:35:51.811Z,89.71
2019-01-21T03:38:58.380Z,89.23
2019-01-21T03:42:04.624Z,89.50
2019-01-21T03:45:11.658Z,90.29
2019-01-21T03:51:20.769Z,89.83
2019-01-21T03:57:26.295Z,90.15
2019-01-21T04:04:12.404Z,90.11
2019-01-21T04:07:32.483Z,90.07
2019-01-21T04:10:38.997Z,90.77
2019-01-21T04:13:45.242Z,90.73
2019-01-21T04:16:52.070Z,90.74
2019-01-21T04:19:42.718Z,89.80
2019-01-21T04:22:49.282Z,90.21
2019-01-21T04:25:56.222Z,89.74
2019-01-21T04:29:02.961Z,90.04
2019-01-21T04:32:09.642Z,90.14
2019-01-21T04:35:15.892Z,89.44
2019-01-21T04:38:22.624Z,89.45
2019-01-21T04:41:16.061Z,89.12
2019-01-21T04:44:22.828Z,88.69
2019-01-21T04:47:31.017Z,89.56
2019-01-21T04:50:22.858Z,90.13
2019-01-21T04:53:29.062Z,89.98
2019-01-21T04:56:44.364Z,89.88
2019-01-21T04:59:50.899Z,89.96
2019-01-21T05:02:57.440Z,90.15
2019-01-21T05:06:03.965Z,90.20
2019-01-21T05:09:10.494Z,89.37
2019-01-21T05:12:17.085Z,89.72
2019-01-21T05:15:32.924Z,89.12
2019-01-21T05:18:41.259Z,89.39
2019-01-21T05:21:47.647Z,89.37
2019-01-21T05:24:54.143Z,89.71
2019-01-21T05:28:00.687Z,88.53
2019-01-21T05:31:07.217Z,88.16
2019-01-21T05:34:08.827Z,88.92
2019-01-21T05:37:15.364Z,89.60
2019-01-21T05:40:21.918Z,89.34
2019-01-21T05:43:28.455Z,88.87
2019-01-21T05:46:35.049Z,88.68
2019-01-21T05:49:41.250Z,88.71
2019-01-21T05:52:47.465Z,89.15
2019-01-21T05:55:53.640Z,87.73
2019-01-21T05:58:54.516Z,87.04
2019-01-21T06:02:01.059Z,87.51
2019-01-21T06:05:07.037Z,88.91
2019-01-21T06:08:13.573Z,88.99
2019-01-21T06:11:26.392Z,89.15
2019-01-21T06:14:33.018Z,89.74
2019-01-21T06:17:23.527Z,89.79
2019-01-21T06:20:35.934Z,90.07
2019-01-21T06:23:26.892Z,89.91
2019-01-21T06:26:33.469Z,89.29
2019-01-21T06:29:24.156Z,88.81
2019-01-21T06:32:30.352Z,88.42
2019-01-21T06:35:36.564Z,89.48
2019-01-21T06:38:43.294Z,89.19
2019-01-21T06:41:49.835Z,89.96
2019-01-21T06:44:56.397Z,90.08
2019-01-21T06:48:02.906Z,89.79
2019-01-21T06:51:09.418Z,89.77
2019-01-21T06:54:15.917Z,90.46
2019-01-21T06:57:22.483Z,90.02
2019-01-21T07:00:13.829Z,89.94
2019-01-21T07:03:20.408Z,89.65
2019-01-21T07:06:34.157Z,89.61
2019-01-21T07:09:25.872Z,89.45
2019-01-21T07:12:32.417Z,88.90
2019-01-21T07:15:38.947Z,88.95
2019-01-21T07:18:45.157Z,89.51
2019-01-21T07:21:51.690Z,89.06
2019-01-21T07:24:50.716Z,88.71
2019-01-21T07:27:57.229Z,88.82
2019-01-21T07:31:03.782Z,89.13
2019-01-21T07:34:10.080Z,88.40
2019-01-21T07:37:16.624Z,88.42
2019-01-21T07:40:08.250Z,87.98
2019-01-21T07:43:14.895Z,87.77
2019-01-21T07:46:21.433Z,87.43
2019-01-21T07:49:27.637Z,86.97
2019-01-21T07:52:34.168Z,87.21
2019-01-21T07:55:47.312Z,87.38
2019-01-21T07:58:54.035Z,87.45
2019-01-21T08:01:47.423Z,87.45
2019-01-21T08:04:53.988Z,87.33
2019-01-21T08:08:05.718Z,86.77
2019-01-21T08:11:11.923Z,86.62
2019-01-21T08:14:18.469Z,86.03
2019-01-21T08:20:52.415Z,85.98
2019-01-21T08:23:58.684Z,85.07
2019-01-21T08:27:05.382Z,84.60
2019-01-21T08:30:11.643Z,84.60
2019-01-21T08:33:18.308Z,84.05
2019-01-21T08:36:38.826Z,84.13
2019-01-21T08:39:45.364Z,83.28
2019-01-21T08:42:51.673Z,82.12
2019-01-21T08:46:13.331Z,82.20
2019-01-21T08:49:03.593Z,82.73
2019-01-21T08:52:10.118Z,81.04
2019-01-21T08:55:01.218Z,82.10
2019-01-21T08:58:07.768Z,81.22
2019-01-21T09:01:14.040Z,81.01
2019-01-21T09:04:20.573Z,80.96
2019-01-21T09:07:27.058Z,79.95
2019-01-21T09:10:33.588Z,80.00
2019-01-21T09:13:28.280Z,80.27
2019-01-21T09:16:19.875Z,79.90
2019-01-21T09:19:26.404Z,79.11
2019-01-21T09:22:25.719Z,78.82
2019-01-21T09:25:32.233Z,79.15
2019-01-21T09:28:38.477Z,78.88
2019-01-21T09:31:45.036Z,77.86
2019-01-21T09:34:51.569Z,77.61
2019-01-21T09:37:41.473Z,77.81
2019-01-21T09:40:47.406Z,77.19
2019-01-21T09:43:49.114Z,78.43
2019-01-21T09:47:03.912Z,76.91
2019-01-21T09:49:30.599Z,76.69
2019-01-21T09:52:18.420Z,76.88
2019-01-21T09:54:46.838Z,76.50
2019-01-21T09:57:18.499Z,77.04
2019-01-21T10:00:27.606Z,76.48
2019-01-21T10:03:36.015Z,77.13
2019-01-21T10:06:46.182Z,78.20
2019-01-21T10:10:01.106Z,78.66
2019-01-21T10:13:07.591Z,76.73
2019-01-21T10:16:01.247Z,76.51
2019-01-21T10:19:18.688Z,76.76
2019-01-21T10:22:25.238Z,77.09
2019-01-21T10:25:31.544Z,76.66
2019-01-21T10:28:38.084Z,74.72
2019-01-21T10:31:44.619Z,74.55
2019-01-21T10:34:51.130Z,74.75
2019-01-21T10:37:57.345Z,75.75
2019-01-21T10:40:47.032Z,75.31
2019-01-21T10:43:47.373Z,74.33
2019-01-21T10:46:53.309Z,73.77
2019-01-21T10:49:59.534Z,75.37
2019-01-21T10:53:00.234Z,72.93
2019-01-21T10:56:06.423Z,71.77
2019-01-21T10:58:49.539Z,71.51
2019-01-21T11:01:50.573Z,69.76
2019-01-21T11:04:32.876Z,69.51
2019-01-21T11:07:39.417Z,70.07
2019-01-21T11:10:30.596Z,70.42
2019-01-21T11:13:21.526Z,69.10
2019-01-21T11:19:46.945Z,69.18
2019-01-21T11:22:42.078Z,69.94
2019-01-21T11:25:48.846Z,69.08
2019-01-21T11:28:55.380Z,68.26
2019-01-21T11:31:45.311Z,69.83
2019-01-21T11:34:37.489Z,70.35
2019-01-21T11:37:43.730Z,71.16
2019-01-21T11:40:33.925Z,70.69
2019-01-21T11:43:40.641Z,71.50
2019-01-21T11:46:46.963Z,72.76
2019-01-21T11:49:53.324Z,73.59
2019-01-21T11:52:59.492Z,75.27
2019-01-21T11:56:06.074Z,75.51
2019-01-21T11:58:57.221Z,77.08
2019-01-21T12:01:35.549Z,77.28
2019-01-21T12:04:26.165Z,76.65
2019-01-21T12:07:19.696Z,74.76
2019-01-21T12:10:11.461Z,73.92
2019-01-21T12:13:17.950Z,71.96
2019-01-21T12:16:12.106Z,72.81
2019-01-21T12:19:18.625Z,72.57
2019-01-21T12:22:25.129Z,73.98
2019-01-21T12:25:39.081Z,73.46
2019-01-21T12:28:39.994Z,73.45
2019-01-21T12:31:52.273Z,72.74
2019-01-21T12:35:06.219Z,73.16
2019-01-21T12:38:01.395Z,74.83
2019-01-21T12:41:21.669Z,74.32
2019-01-21T12:44:26.509Z,72.39
2019-01-21T12:47:32.723Z,73.15
2019-01-21T12:50:38.627Z,74.07
2019-01-21T12:53:32.970Z,73.35
2019-01-21T12:56:39.554Z,73.46
2019-01-21T12:59:45.740Z,74.08
2019-01-21T13:02:25.860Z,74.75
2019-01-21T13:05:32.239Z,75.93
2019-01-21T13:08:44.474Z,76.30
2019-01-21T13:11:51.046Z,77.13
2019-01-21T13:14:57.286Z,76.50
2019-01-21T13:18:03.488Z,76.97
2019-01-21T13:21:09.463Z,76.47
2019-01-21T13:24:31.266Z,77.45
2019-01-21T13:27:37.308Z,77.24
2019-01-21T13:30:43.840Z,77.01
2019-01-21T13:33:35.230Z,77.04
2019-01-21T13:36:41.803Z,77.45
2019-01-21T13:39:48.360Z,79.01
2019-01-21T13:42:58.814Z,78.11
2019-01-21T13:45:50.508Z,79.27
2019-01-21T13:48:40.684Z,80.55
2019-01-21T13:51:58.619Z,80.96
2019-01-21T13:54:50.049Z,81.63
2019-01-21T13:57:56.599Z,81.49
2019-01-21T14:01:03.137Z,81.67
2019-01-21T14:07:43.444Z,81.11
2019-01-21T14:10:36.599Z,80.84
2019-01-21T14:13:27.158Z,80.46
2019-01-21T14:16:33.677Z,80.77
2019-01-21T14:19:40.350Z,80.97
2019-01-21T14:22:36.109Z,81.38
2019-01-21T14:25:42.610Z,82.58
2019-01-21T14:29:01.139Z,82.57
2019-01-21T14:32:16.295Z,82.83
2019-01-21T14:35:22.498Z,82.47
2019-01-21T14:38:34.883Z,82.27
2019-01-21T14:41:41.139Z,83.03
2019-01-21T14:44:47.669Z,82.15
2019-01-21T14:47:54.201Z,82.34
2019-01-21T14:51:00.680Z,81.73
2019-01-21T14:54:07.274Z,82.60
2019-01-21T14:57:18.539Z,82.14
2019-01-21T15:00:24.816Z,82.26
2019-01-21T15:03:31.091Z,83.98
2019-01-21T15:06:37.642Z,83.40
2019-01-21T15:09:44.181Z,83.13
2019-01-21T15:12:50.718Z,82.76
2019-01-21T15:15:57.229Z,83.53
2019-01-21T15:18:47.542Z,84.52
2019-01-21T15:21:54.046Z,84.55
2019-01-21T15:25:00.402Z,85.09
2019-01-21T15:27:55.520Z,84.42
2019-01-21T15:30:55.826Z,84.39
2019-01-21T15:34:02.433Z,85.16
2019-01-21T15:36:53.501Z,85.24
2019-01-21T15:39:59.795Z,86.00
2019-01-21T15:43:06.062Z,85.25
2019-01-21T15:46:12.635Z,85.02
2019-01-21T15:49:19.122Z,85.68
2019-01-21T15:52:25.659Z,85.30
2019-01-21T15:55:32.389Z,86.53
2019-01-21T15:58:38.572Z,85.92
2019-01-21T16:01:44.978Z,85.05
2019-01-21T16:04:25.240Z,85.98
2019-01-21T16:10:57.740Z,86.74
2019-01-21T16:14:04.267Z,86.57
2019-01-21T16:16:57.761Z,86.36
2019-01-21T16:19:49.226Z,86.34
2019-01-21T16:22:55.767Z,84.99
2019-01-21T16:26:02.290Z,86.90
2019-01-21T16:29:08.933Z,87.21
2019-01-21T16:32:15.520Z,87.35
2019-01-21T16:35:26.595Z,87.84
2019-01-21T16:38:32.855Z,87.56
2019-01-21T16:41:39.141Z,87.66
2019-01-21T16:46:41.300Z,87.60
2019-01-21T16:49:09.410Z,87.24
2019-01-21T16:51:37.949Z,87.32
2019-01-21T16:54:05.727Z,87.66
2019-01-21T16:56:34.121Z,89.05
2019-01-21T16:59:01.582Z,89.17
2019-01-21T17:01:29.771Z,88.89
2019-01-21T17:06:53.017Z,88.34
2019-01-21T17:09:21.623Z,88.72
2019-01-21T17:12:29.827Z,89.07
2019-01-21T17:15:38.346Z,89.36
2019-01-21T17:18:06.868Z,89.90
2019-01-21T17:21:15.401Z,90.39
2019-01-21T17:24:23.912Z,89.85
2019-01-21T17:29:32.481Z,88.70
2019-01-21T17:32:01.020Z,89.02
2019-01-21T17:34:28.792Z,89.35
2019-01-21T17:39:52.822Z,88.29
2019-01-21T17:42:20.951Z,88.45
2019-01-21T17:44:49.648Z,89.04
2019-01-21T17:47:17.857Z,90.15
2019-01-21T17:49:45.633Z,90.61
2019-01-21T17:52:13.961Z,90.00
2019-01-21T17:54:42.421Z,89.73
2019-01-21T17:57:10.483Z,89.48
2019-01-21T17:59:38.682Z,89.38
2019-01-21T18:02:06.893Z,89.56
2019-01-21T18:04:35.296Z,89.42
2019-01-21T18:07:03.111Z,90.26
2019-01-21T18:09:31.547Z,89.57
2019-01-21T18:11:59.027Z,87.96
2019-01-21T18:14:26.855Z,88.16
2019-01-21T18:16:55.109Z,88.59
2019-01-21T18:19:23.180Z,88.52
2019-01-21T18:21:51.580Z,88.40
2019-01-21T18:24:19.911Z,89.15
2019-01-21T18:26:48.210Z,87.54
2019-01-21T18:29:15.373Z,87.58
2019-01-21T18:31:43.651Z,90.11
2019-01-21T18:34:11.830Z,90.28
2019-01-21T18:36:40.307Z,90.88
2019-01-21T18:39:11.565Z,91.65
2019-01-21T18:41:39.723Z,91.30
2019-01-21T18:46:41.923Z,90.82
2019-01-21T18:49:50.446Z,87.04
2019-01-21T18:56:07.630Z,86.99
2019-01-21T18:58:48.134Z,87.44
2019-01-21T19:04:18.232Z,88.86
2019-01-21T19:06:46.353Z,88.21
2019-01-21T19:09:14.192Z,87.83
2019-01-21T19:11:42.378Z,89.53
2019-01-21T19:14:10.505Z,88.00
2019-01-21T19:16:38.747Z,88.86
2019-01-21T19:19:07.297Z,86.81
2019-01-21T19:21:35.844Z,86.25
2019-01-21T19:24:44.038Z,86.17
2019-01-21T19:27:12.574Z,90.20
2019-01-21T19:32:35.227Z,90.13
2019-01-21T19:35:43.792Z,92.81
2019-01-21T19:38:51.912Z,92.30
2019-01-21T19:41:32.645Z,92.22
2019-01-21T19:44:41.267Z,92.37
2019-01-21T19:47:10.502Z,92.54
2019-01-21T19:49:38.633Z,92.47
2019-01-21T19:52:26.031Z,91.18
2019-01-21T19:54:54.446Z,91.67
2019-01-21T19:57:23.291Z,91.76
2019-01-21T20:00:03.196Z,90.07
2019-01-21T20:02:44.557Z,91.23
2019-01-21T20:05:32.207Z,90.84
2019-01-21T20:08:02.861Z,90.99
2019-01-21T20:16:21.121Z,91.19
2019-01-21T20:24:37.669Z,87.35
2019-01-21T20:27:06.250Z,87.37
2019-01-21T20:30:14.727Z,87.81
2019-01-21T20:32:44.881Z,90.56
2019-01-21T20:35:53.036Z,90.74
2019-01-21T20:40:54.531Z,89.08
2019-01-21T20:43:43.872Z,88.13
2019-01-21T20:46:12.244Z,89.44
2019-01-21T20:48:41.031Z,91.50
2019-01-21T20:51:49.371Z,90.42
2019-01-21T20:54:17.398Z,88.15
2019-01-21T20:57:26.436Z,88.89
2019-01-21T20:59:54.825Z,86.95
2019-01-21T21:05:33.007Z,89.52
2019-01-21T21:08:40.171Z,89.54
2019-01-21T21:11:07.893Z,87.44
2019-01-21T21:13:55.465Z,88.05
2019-01-21T21:16:23.028Z,90.55
2019-01-21T21:19:31.883Z,90.25
2019-01-21T21:21:59.878Z,88.76
2019-01-21T21:24:47.436Z,89.64
2019-01-21T21:31:05.357Z,90.72
2019-01-21T21:33:53.094Z,88.34
2019-01-21T21:36:21.491Z,88.07
2019-01-21T21:39:09.082Z,88.39
2019-01-21T21:41:37.128Z,89.31
2019-01-21T21:44:25.329Z,89.21
2019-01-21T21:46:53.827Z,88.03
2019-01-21T21:49:22.093Z,89.48
2019-01-21T21:52:30.578Z,89.91
2019-01-21T21:55:39.420Z,89.37
2019-01-21T21:58:49.266Z,88.47
2019-01-21T22:01:57.922Z,88.43
2019-01-21T22:04:38.003Z,89.95
2019-01-21T22:07:18.381Z,89.24
2019-01-21T22:10:26.911Z,90.34
2019-01-21T22:18:28.530Z,88.34
2019-01-21T22:21:36.616Z,87.65
2019-01-21T22:27:13.470Z,88.67
2019-01-21T22:29:42.253Z,88.57
2019-01-21T22:32:50.900Z,87.01
2019-01-21T22:35:18.967Z,88.91
2019-01-21T22:38:29.312Z,88.70
2019-01-21T22:40:57.665Z,87.70
2019-01-21T22:43:26.641Z,88.39
2019-01-21T22:46:35.401Z,88.35
2019-01-21T22:49:05.811Z,89.84
2019-01-21T22:51:34.055Z,89.30
2019-01-21T22:54:02.913Z,88.89
2019-01-21T22:56:31.059Z,88.91
2019-01-21T22:59:39.006Z,88.59
2019-01-21T23:02:26.198Z,89.35
2019-01-21T23:07:51.077Z,89.27
2019-01-21T23:10:20.262Z,89.13
2019-01-21T23:18:39.551Z,89.49
2019-01-21T23:21:07.881Z,88.63
2019-01-21T23:23:55.830Z,88.55
2019-01-21T23:27:04.301Z,89.81
2019-01-21T23:29:32.766Z,88.99
2019-01-21T23:32:01.178Z,89.75
2019-01-21T23:34:29.238Z,89.42
2019-01-21T23:36:56.606Z,90.04
2019-01-21T23:39:25.126Z,89.71
2019-01-21T23:41:53.683Z,90.60
2019-01-21T23:47:36.218Z,89.58
2019-01-21T23:50:44.751Z,89.37
2019-01-21T23:53:52.899Z,89.95
2019-01-21T23:56:21.374Z,89.64
2019-01-21T23:58:49.483Z,90.25
